createdAt,value
2022-11-27T00:00:44.978Z,8.48
2022-11-27T00:02:16.684Z,8.80
2022-11-27T00:03:49.814Z,9.05
2022-11-27T00:05:21.461Z,8.02
2022-11-27T00:06:53.065Z,8.13
2022-11-27T00:08:24.816Z,6.45
2022-11-27T00:09:56.471Z,8.38
2022-11-27T00:11:28.741Z,7.32
2022-11-27T00:13:00.361Z,8.73
2022-11-27T00:14:32.089Z,9.60
2022-11-27T00:16:04.259Z,9.15
2022-11-27T00:17:35.951Z,9.73
2022-11-27T00:19:09.624Z,8.40
2022-11-27T00:20:41.269Z,9.25
2022-11-27T00:22:12.868Z,6.95
2022-11-27T00:23:44.518Z,7.45
2022-11-27T00:25:16.205Z,9.88
2022-11-27T00:26:49.760Z,7.25
2022-11-27T00:28:21.437Z,8.50
2022-11-27T00:29:53.042Z,8.88
2022-11-27T00:31:29.510Z,8.85
2022-11-27T00:33:01.262Z,7.82
2022-11-27T00:34:34.348Z,7.47
2022-11-27T00:36:07.384Z,10.63
2022-11-27T00:37:39.030Z,7.57
2022-11-27T00:39:10.632Z,6.90
2022-11-27T00:40:42.228Z,8.02
2022-11-27T00:42:13.916Z,9.40
2022-11-27T00:43:45.790Z,6.82
2022-11-27T00:45:17.427Z,9.55
2022-11-27T00:46:49.236Z,7.57
2022-11-27T00:48:20.855Z,8.82
2022-11-27T00:49:53.849Z,6.38
2022-11-27T00:51:25.653Z,6.15
2022-11-27T00:52:57.366Z,7.22
2022-11-27T00:54:28.975Z,9.50
2022-11-27T00:56:00.599Z,8.93
2022-11-27T00:57:32.202Z,8.95
2022-11-27T00:59:03.935Z,11.75
2022-11-27T01:00:35.531Z,7.53
2022-11-27T01:02:07.210Z,8.40
2022-11-27T01:03:38.884Z,7.82
2022-11-27T01:05:11.833Z,8.15
2022-11-27T01:06:43.641Z,8.15
2022-11-27T01:08:15.184Z,8.52
2022-11-27T01:09:46.771Z,8.50
2022-11-27T01:11:20.388Z,6.55
2022-11-27T01:12:51.953Z,8.18
2022-11-27T01:14:23.523Z,6.05
2022-11-27T01:15:58.940Z,6.75
2022-11-27T01:17:30.506Z,9.07
2022-11-27T01:19:02.136Z,7.20
2022-11-27T01:20:37.504Z,6.55
2022-11-27T01:22:09.079Z,8.48
2022-11-27T01:23:40.739Z,7.45
2022-11-27T01:25:12.345Z,7.82
2022-11-27T01:26:44.103Z,8.23
2022-11-27T01:28:15.815Z,7.32
2022-11-27T01:29:47.382Z,7.63
2022-11-27T01:31:19.919Z,8.55
2022-11-27T01:32:51.552Z,6.95
2022-11-27T01:34:23.148Z,8.88
2022-11-27T01:35:57.098Z,7.47
2022-11-27T01:37:28.749Z,8.50
2022-11-27T01:39:00.524Z,6.93
2022-11-27T01:40:32.112Z,7.85
2022-11-27T01:42:03.977Z,8.48
2022-11-27T01:43:37.295Z,10.90
2022-11-27T01:45:09.582Z,7.78
2022-11-27T01:46:42.565Z,8.95
2022-11-27T01:48:14.222Z,6.75
2022-11-27T01:49:47.715Z,6.97
2022-11-27T01:51:20.747Z,7.40
2022-11-27T01:52:53.987Z,6.43
2022-11-27T01:54:26.652Z,6.47
2022-11-27T01:55:59.363Z,5.40
2022-11-27T01:57:31.859Z,6.07
2022-11-27T01:59:03.479Z,6.72
2022-11-27T02:00:35.128Z,6.28
2022-11-27T02:02:06.812Z,8.73
2022-11-27T02:03:38.434Z,6.45
2022-11-27T02:05:10.469Z,7.68
2022-11-27T02:06:43.470Z,9.57
2022-11-27T02:08:16.059Z,5.95
2022-11-27T02:09:47.650Z,6.47
2022-11-27T02:11:22.725Z,5.60
2022-11-27T02:12:56.572Z,7.55
2022-11-27T02:14:31.137Z,9.15
2022-11-27T02:16:12.689Z,8.23
2022-11-27T02:17:48.434Z,8.73
2022-11-27T02:19:25.862Z,8.23
2022-11-27T02:20:59.611Z,8.75
2022-11-27T02:22:38.445Z,7.63
2022-11-27T02:24:30.648Z,7.60
2022-11-27T02:26:18.005Z,7.65
2022-11-27T02:27:58.864Z,7.10
2022-11-27T02:29:32.297Z,7.97
2022-11-27T02:31:10.562Z,6.65
2022-11-27T02:32:44.130Z,8.77
2022-11-27T02:34:23.527Z,7.47
2022-11-27T02:35:56.656Z,7.05
2022-11-27T02:37:32.354Z,6.97
2022-11-27T02:39:06.002Z,6.32
2022-11-27T02:40:38.986Z,8.82
2022-11-27T02:42:12.878Z,8.48
2022-11-27T02:43:46.316Z,9.02
2022-11-27T02:45:21.672Z,8.88
2022-11-27T02:46:53.327Z,9.27
2022-11-27T02:48:26.865Z,8.90
2022-11-27T02:49:58.450Z,8.43
2022-11-27T02:51:33.618Z,8.40
2022-11-27T02:53:06.931Z,9.88
2022-11-27T02:54:38.702Z,8.23
2022-11-27T02:56:12.476Z,10.40
2022-11-27T02:57:44.104Z,9.52
2022-11-27T02:59:15.706Z,12.15
2022-11-27T03:00:48.664Z,8.63
2022-11-27T03:02:22.367Z,9.02
2022-11-27T03:03:56.038Z,13.40
2022-11-27T03:05:30.367Z,9.40
2022-11-27T03:07:03.423Z,9.93
2022-11-27T03:08:37.597Z,9.57
2022-11-27T03:10:11.905Z,10.77
2022-11-27T03:11:43.509Z,9.38
2022-11-27T03:13:15.126Z,9.02
2022-11-27T03:14:46.725Z,7.68
2022-11-27T03:16:22.752Z,7.65
2022-11-27T03:17:55.654Z,9.50
2022-11-27T03:19:30.905Z,8.50
2022-11-27T03:21:05.397Z,11.07
2022-11-27T03:22:37.061Z,8.00
2022-11-27T03:24:08.837Z,10.85
2022-11-27T03:25:40.405Z,8.52
2022-11-27T03:27:12.678Z,8.15
2022-11-27T03:28:44.714Z,8.88
2022-11-27T03:30:16.456Z,9.10
2022-11-27T03:31:49.681Z,12.23
2022-11-27T03:33:21.292Z,9.85
2022-11-27T03:34:52.865Z,9.15
2022-11-27T03:36:24.476Z,10.82
2022-11-27T03:37:56.042Z,12.60
2022-11-27T03:39:27.643Z,10.88
2022-11-27T03:41:01.993Z,10.73
2022-11-27T03:42:36.489Z,9.32
2022-11-27T03:44:12.055Z,8.82
2022-11-27T03:45:46.336Z,8.50
2022-11-27T03:47:26.286Z,9.20
2022-11-27T03:48:59.734Z,10.43
2022-11-27T03:50:35.685Z,9.82
2022-11-27T03:52:08.616Z,10.55
2022-11-27T03:53:44.615Z,10.93
2022-11-27T03:55:17.686Z,9.52
2022-11-27T03:56:53.070Z,9.10
2022-11-27T03:58:27.139Z,8.93
2022-11-27T03:59:59.001Z,8.60
2022-11-27T04:01:30.650Z,8.45
2022-11-27T04:03:03.955Z,8.98
2022-11-27T04:04:35.604Z,11.40
2022-11-27T04:06:07.281Z,10.13
2022-11-27T04:07:39.027Z,9.55
2022-11-27T04:09:10.677Z,10.65
2022-11-27T04:10:42.330Z,8.93
2022-11-27T04:12:13.931Z,9.15
2022-11-27T04:13:45.576Z,9.40
2022-11-27T04:15:17.353Z,10.55
2022-11-27T04:16:49.008Z,8.45
2022-11-27T04:18:21.963Z,10.25
2022-11-27T04:19:53.666Z,9.70
2022-11-27T04:21:25.305Z,8.52
2022-11-27T04:22:56.930Z,8.43
2022-11-27T04:24:28.559Z,9.13
2022-11-27T04:26:00.264Z,9.63
2022-11-27T04:27:31.867Z,8.98
2022-11-27T04:29:03.458Z,9.32
2022-11-27T04:30:35.074Z,9.55
2022-11-27T04:32:06.716Z,10.20
2022-11-27T04:33:39.662Z,11.27
2022-11-27T04:35:11.305Z,9.50
2022-11-27T04:36:42.942Z,9.05
2022-11-27T04:38:14.628Z,9.68
2022-11-27T04:39:46.231Z,9.43
2022-11-27T04:41:17.882Z,11.20
2022-11-27T04:42:49.507Z,10.13
2022-11-27T04:44:22.745Z,9.52
2022-11-27T04:45:54.378Z,9.65
2022-11-27T04:47:25.981Z,9.73
2022-11-27T04:48:58.944Z,11.38
2022-11-27T04:50:30.688Z,19.85
2022-11-27T04:52:02.342Z,19.02
2022-11-27T04:53:33.959Z,14.82
2022-11-27T04:55:06.500Z,20.73
2022-11-27T04:56:38.105Z,13.25
2022-11-27T04:58:09.740Z,12.45
2022-11-27T04:59:41.329Z,11.98
2022-11-27T05:01:13.079Z,12.45
2022-11-27T05:02:44.956Z,13.40
2022-11-27T05:04:17.973Z,13.25
2022-11-27T05:05:54.719Z,10.88
2022-11-27T05:07:26.395Z,13.18
2022-11-27T05:09:01.928Z,13.32
2022-11-27T05:10:33.513Z,13.88
2022-11-27T05:12:05.696Z,13.07
2022-11-27T05:13:37.265Z,14.60
2022-11-27T05:15:09.652Z,18.00
2022-11-27T05:16:41.310Z,15.93
2022-11-27T05:18:13.002Z,15.70
2022-11-27T05:19:45.932Z,12.95
2022-11-27T05:21:17.553Z,15.35
2022-11-27T05:22:49.632Z,12.38
2022-11-27T05:24:23.050Z,14.02
2022-11-27T05:25:54.743Z,13.90
2022-11-27T05:27:26.310Z,11.32
2022-11-27T05:28:57.965Z,12.43
2022-11-27T05:30:29.564Z,11.80
2022-11-27T05:32:01.172Z,16.25
2022-11-27T05:33:32.766Z,15.25
2022-11-27T05:35:06.408Z,13.85
2022-11-27T05:36:38.050Z,17.83
2022-11-27T05:38:09.706Z,18.42
2022-11-27T05:39:41.540Z,68.90
2022-11-27T05:41:13.126Z,24.67
2022-11-27T05:42:44.722Z,36.45
2022-11-27T05:44:16.382Z,16.50
2022-11-27T05:45:47.988Z,28.88
2022-11-27T05:47:19.595Z,79.72
2022-11-27T05:48:51.240Z,15.27
2022-11-27T05:50:24.408Z,13.18
2022-11-27T05:51:56.079Z,17.15
2022-11-27T05:53:27.683Z,13.15
2022-11-27T05:54:59.303Z,14.13
2022-11-27T05:56:30.930Z,12.73
2022-11-27T05:58:02.558Z,13.30
2022-11-27T05:59:34.136Z,20.08
2022-11-27T06:01:05.951Z,15.30
2022-11-27T06:02:37.718Z,14.55
2022-11-27T06:04:09.372Z,15.40
2022-11-27T06:05:42.335Z,13.65
2022-11-27T06:07:14.021Z,14.60
2022-11-27T06:08:45.761Z,18.45
2022-11-27T06:10:17.500Z,14.55
2022-11-27T06:11:49.166Z,16.38
2022-11-27T06:13:20.752Z,12.60
2022-11-27T06:14:52.403Z,14.27
2022-11-27T06:16:24.219Z,18.35
2022-11-27T06:17:56.303Z,13.18
2022-11-27T06:19:27.933Z,12.55
2022-11-27T06:21:00.901Z,13.45
2022-11-27T06:22:32.558Z,10.80
2022-11-27T06:24:04.354Z,13.18
2022-11-27T06:25:35.946Z,12.38
2022-11-27T06:27:07.541Z,12.18
2022-11-27T06:28:39.176Z,13.35
2022-11-27T06:30:12.143Z,11.38
2022-11-27T06:31:43.788Z,12.35
2022-11-27T06:33:15.536Z,11.52
2022-11-27T06:34:47.139Z,10.70
2022-11-27T06:36:20.234Z,12.35
2022-11-27T06:37:51.866Z,11.80
2022-11-27T06:39:23.446Z,19.20
2022-11-27T06:40:55.025Z,14.50
2022-11-27T06:42:28.842Z,12.70
2022-11-27T06:44:00.768Z,11.35
2022-11-27T06:45:32.416Z,11.25
2022-11-27T06:47:04.113Z,11.10
2022-11-27T06:48:35.721Z,11.60
2022-11-27T06:50:08.212Z,11.60
2022-11-27T06:51:41.262Z,16.17
2022-11-27T06:53:12.869Z,14.45
2022-11-27T06:54:44.487Z,13.68
2022-11-27T06:56:17.241Z,12.80
2022-11-27T06:57:50.079Z,14.55
2022-11-27T06:59:21.720Z,13.68
2022-11-27T07:00:57.485Z,17.00
2022-11-27T07:02:30.236Z,18.48
2022-11-27T07:04:01.963Z,15.10
2022-11-27T07:05:33.601Z,20.67
2022-11-27T07:07:06.537Z,65.90
2022-11-27T07:08:38.196Z,21.35
2022-11-27T07:10:10.128Z,28.60
2022-11-27T07:11:41.742Z,15.63
2022-11-27T07:13:13.345Z,14.73
2022-11-27T07:14:45.018Z,16.65
2022-11-27T07:16:16.943Z,17.20
2022-11-27T07:17:48.600Z,14.35
2022-11-27T07:19:20.530Z,35.05
2022-11-27T07:20:56.246Z,15.00
2022-11-27T07:22:31.918Z,17.75
2022-11-27T07:24:03.666Z,13.80
2022-11-27T07:25:37.356Z,16.15
2022-11-27T07:27:08.979Z,17.13
2022-11-27T07:28:43.641Z,16.42
2022-11-27T07:30:15.699Z,15.45
2022-11-27T07:31:47.966Z,14.45
2022-11-27T07:33:19.631Z,17.40
2022-11-27T07:34:51.254Z,16.00
2022-11-27T07:36:23.939Z,17.55
2022-11-27T07:37:56.940Z,50.63
2022-11-27T07:39:54.042Z,22.13
2022-11-27T07:41:20.707Z,16.25
2022-11-27T07:42:52.304Z,19.55
2022-11-27T07:44:23.921Z,16.45
2022-11-27T07:45:55.615Z,17.27
2022-11-27T07:47:27.310Z,17.10
2022-11-27T07:49:00.498Z,17.60
2022-11-27T07:50:32.309Z,20.52
2022-11-27T07:52:03.980Z,19.15
2022-11-27T07:53:38.194Z,20.67
2022-11-27T07:55:10.081Z,21.20
2022-11-27T07:56:41.703Z,18.65
2022-11-27T07:58:13.292Z,16.63
2022-11-27T07:59:47.498Z,32.92
2022-11-27T08:01:19.561Z,43.20
2022-11-27T08:02:51.284Z,28.30
2022-11-27T08:04:22.979Z,25.95
2022-11-27T08:05:54.682Z,32.38
2022-11-27T08:07:27.405Z,33.13
2022-11-27T08:09:00.456Z,26.02
2022-11-27T08:10:32.074Z,22.05
2022-11-27T08:12:04.072Z,18.08
2022-11-27T08:13:35.682Z,17.00
2022-11-27T08:15:08.431Z,19.45
2022-11-27T08:16:40.130Z,16.65
2022-11-27T08:18:11.789Z,18.02
2022-11-27T08:19:43.365Z,21.63
2022-11-27T08:21:15.012Z,27.00
2022-11-27T08:22:49.582Z,29.73
2022-11-27T08:24:22.534Z,24.60
2022-11-27T08:25:54.130Z,20.77
2022-11-27T08:27:25.816Z,39.22
2022-11-27T08:28:57.553Z,18.38
2022-11-27T08:30:29.162Z,19.23
2022-11-27T08:32:08.283Z,20.15
2022-11-27T08:33:39.979Z,18.55
2022-11-27T08:35:11.601Z,16.73
2022-11-27T08:36:43.480Z,17.48
2022-11-27T08:38:15.044Z,15.40
2022-11-27T08:39:48.011Z,16.50
2022-11-27T08:41:19.580Z,16.25
2022-11-27T08:42:51.174Z,19.30
2022-11-27T08:44:22.885Z,15.82
2022-11-27T08:45:54.780Z,15.95
2022-11-27T08:47:26.464Z,15.98
2022-11-27T08:48:58.998Z,13.73
2022-11-27T08:50:30.594Z,15.68
2022-11-27T08:52:02.234Z,18.45
2022-11-27T08:53:33.998Z,13.50
2022-11-27T08:55:08.360Z,15.10
2022-11-27T08:56:39.961Z,13.90
2022-11-27T08:58:11.556Z,15.82
2022-11-27T08:59:43.177Z,15.30
2022-11-27T09:01:15.916Z,14.50
2022-11-27T09:02:47.593Z,14.35
2022-11-27T09:04:19.216Z,15.13
2022-11-27T09:05:50.840Z,14.98
2022-11-27T09:07:22.543Z,13.93
2022-11-27T09:08:55.734Z,14.43
2022-11-27T09:10:28.804Z,14.10
2022-11-27T09:12:00.418Z,14.63
2022-11-27T09:13:32.376Z,15.38
2022-11-27T09:15:04.724Z,17.20
2022-11-27T09:16:36.397Z,18.23
2022-11-27T09:18:08.104Z,20.23
2022-11-27T09:19:39.753Z,20.20
2022-11-27T09:21:11.909Z,14.98
2022-11-27T09:22:43.542Z,17.95
2022-11-27T09:24:15.160Z,14.82
2022-11-27T09:25:49.540Z,17.05
2022-11-27T09:27:21.142Z,18.23
2022-11-27T09:28:52.858Z,15.30
2022-11-27T09:30:24.449Z,26.00
2022-11-27T09:31:56.175Z,19.90
2022-11-27T09:33:28.644Z,19.70
2022-11-27T09:35:00.286Z,18.60
2022-11-27T09:36:31.907Z,16.63
2022-11-27T09:38:03.480Z,23.95
2022-11-27T09:39:35.366Z,19.88
2022-11-27T09:41:29.426Z,29.75
2022-11-27T09:43:09.690Z,23.33
2022-11-27T09:44:43.378Z,27.67
2022-11-27T09:46:17.688Z,35.13
2022-11-27T09:47:50.254Z,32.58
2022-11-27T09:49:24.846Z,29.73
2022-11-27T09:50:56.454Z,38.55
2022-11-27T09:52:31.405Z,36.22
2022-11-27T09:54:05.590Z,29.17
2022-11-27T09:55:38.094Z,49.72
2022-11-27T09:57:11.258Z,41.10
2022-11-27T09:58:43.401Z,41.95
2022-11-27T10:00:18.333Z,43.10
2022-11-27T10:01:51.178Z,50.85
2022-11-27T10:03:24.758Z,50.40
2022-11-27T10:07:01.665Z,37.40
2022-11-27T10:08:36.973Z,28.55
2022-11-27T10:10:16.193Z,24.70
2022-11-27T10:11:51.099Z,26.55
2022-11-27T10:13:32.789Z,27.88
2022-11-27T10:15:06.926Z,37.17
2022-11-27T10:18:33.348Z,29.73
2022-11-27T10:20:16.399Z,27.17
2022-11-27T10:21:51.541Z,28.98
2022-11-27T10:23:27.355Z,27.15
2022-11-27T10:25:02.304Z,33.85
2022-11-27T10:26:36.626Z,26.67
2022-11-27T10:28:15.157Z,37.03
2022-11-27T10:29:50.480Z,34.80
2022-11-27T10:31:28.284Z,33.25
2022-11-27T10:33:00.286Z,31.98
2022-11-27T10:34:34.943Z,35.10
2022-11-27T10:36:10.910Z,30.98
2022-11-27T10:37:43.700Z,30.30
2022-11-27T10:39:16.474Z,37.13
2022-11-27T10:40:50.435Z,30.15
2022-11-27T10:42:24.168Z,34.13
2022-11-27T10:43:56.435Z,26.55
2022-11-27T10:45:31.988Z,32.10
2022-11-27T10:47:04.788Z,33.45
2022-11-27T10:48:36.587Z,29.85
2022-11-27T10:50:12.903Z,30.77
2022-11-27T10:51:44.551Z,31.42
2022-11-27T10:53:19.707Z,29.83
2022-11-27T10:54:54.564Z,28.42
2022-11-27T10:56:49.200Z,30.35
2022-11-27T10:58:24.180Z,23.42
2022-11-27T11:00:02.188Z,30.48
2022-11-27T11:01:43.054Z,36.85
2022-11-27T11:03:16.934Z,25.17
2022-11-27T11:05:09.050Z,29.35
2022-11-27T11:06:41.793Z,28.73
2022-11-27T11:08:15.960Z,28.08
2022-11-27T11:09:48.537Z,23.35
2022-11-27T11:11:25.263Z,22.38
2022-11-27T11:13:15.823Z,24.52
2022-11-27T11:14:50.703Z,27.67
2022-11-27T11:16:24.522Z,23.48
2022-11-27T11:17:57.901Z,22.17
2022-11-27T11:19:30.311Z,21.17
2022-11-27T11:21:04.958Z,24.10
2022-11-27T11:22:36.562Z,21.83
2022-11-27T11:24:13.809Z,26.55
2022-11-27T11:25:49.261Z,23.13
2022-11-27T11:27:21.813Z,22.23
2022-11-27T11:28:54.317Z,21.00
2022-11-27T11:30:34.712Z,22.92
2022-11-27T11:32:08.820Z,26.50
2022-11-27T11:33:49.088Z,23.95
2022-11-27T11:35:25.840Z,22.33
2022-11-27T11:36:58.208Z,21.63
2022-11-27T11:38:31.560Z,23.15
2022-11-27T11:40:04.547Z,21.15
2022-11-27T11:41:37.397Z,20.60
2022-11-27T11:43:35.520Z,18.20
2022-11-27T11:45:16.673Z,16.52
2022-11-27T11:46:51.660Z,18.60
2022-11-27T11:48:24.930Z,18.55
2022-11-27T11:49:57.940Z,19.08
2022-11-27T11:51:50.782Z,18.45
2022-11-27T11:53:24.525Z,18.45
2022-11-27T11:54:59.878Z,21.63
2022-11-27T11:56:32.399Z,18.08
2022-11-27T11:58:13.523Z,19.15
2022-11-27T11:59:47.147Z,20.45
2022-11-27T12:01:30.562Z,20.30
2022-11-27T12:03:13.235Z,19.90
2022-11-27T12:05:02.784Z,20.73
2022-11-27T12:06:44.860Z,19.67
2022-11-27T12:08:33.377Z,18.30
2022-11-27T12:10:08.098Z,17.73
2022-11-27T12:11:44.235Z,17.27
2022-11-27T12:13:22.136Z,18.42
2022-11-27T12:14:56.122Z,20.02
2022-11-27T12:16:31.405Z,17.95
2022-11-27T12:18:05.096Z,19.35
2022-11-27T12:20:00.212Z,18.83
2022-11-27T12:21:37.500Z,18.23
2022-11-27T12:23:54.437Z,17.92
2022-11-27T12:25:29.187Z,17.58
2022-11-27T12:27:07.995Z,16.55
2022-11-27T12:28:58.979Z,16.20
2022-11-27T12:30:36.029Z,17.27
2022-11-27T12:32:30.199Z,16.95
2022-11-27T12:34:02.805Z,23.55
2022-11-27T12:35:34.925Z,24.90
2022-11-27T12:37:14.372Z,21.48
2022-11-27T12:39:10.729Z,27.55
2022-11-27T12:40:56.888Z,19.73
2022-11-27T12:42:29.878Z,20.27
2022-11-27T12:44:01.458Z,21.33
2022-11-27T12:45:35.071Z,20.60
2022-11-27T12:47:08.441Z,23.60
2022-11-27T12:48:41.757Z,29.50
2022-11-27T12:50:17.208Z,26.63
2022-11-27T12:51:49.447Z,19.95
2022-11-27T12:53:25.168Z,19.50
2022-11-27T12:54:58.849Z,17.65
2022-11-27T12:56:33.336Z,20.27
2022-11-27T12:58:05.839Z,21.73
2022-11-27T12:59:43.327Z,19.17
2022-11-27T13:01:26.788Z,24.08
2022-11-27T13:03:02.802Z,27.40
2022-11-27T13:04:37.081Z,20.98
2022-11-27T13:06:10.058Z,18.50
2022-11-27T13:07:43.704Z,18.98
2022-11-27T13:09:17.024Z,17.35
2022-11-27T13:10:52.326Z,16.67
2022-11-27T13:12:28.565Z,17.70
2022-11-27T13:14:03.174Z,16.65
2022-11-27T13:15:35.917Z,16.50
2022-11-27T13:17:10.136Z,16.35
2022-11-27T13:18:43.960Z,16.90
2022-11-27T13:20:16.605Z,18.38
2022-11-27T13:21:48.244Z,19.60
2022-11-27T13:23:20.057Z,16.23
2022-11-27T13:24:51.619Z,16.85
2022-11-27T13:26:26.566Z,19.58
2022-11-27T13:27:59.812Z,17.15
2022-11-27T13:29:32.307Z,16.55
2022-11-27T13:31:03.883Z,15.50
2022-11-27T13:32:36.858Z,16.08
2022-11-27T13:34:10.064Z,16.60
2022-11-27T13:35:42.527Z,18.58
2022-11-27T13:37:25.806Z,16.60
2022-11-27T13:38:58.970Z,19.75
2022-11-27T13:40:31.581Z,17.20
2022-11-27T13:42:06.000Z,16.15
2022-11-27T13:43:42.516Z,17.05
2022-11-27T13:45:19.673Z,16.90
2022-11-27T13:46:54.782Z,18.55
2022-11-27T13:48:29.992Z,17.02
2022-11-27T13:50:03.065Z,15.88
2022-11-27T13:51:35.877Z,16.05
2022-11-27T13:53:07.466Z,16.23
2022-11-27T13:54:39.114Z,19.58
2022-11-27T13:56:10.739Z,16.52
2022-11-27T13:57:42.350Z,16.38
2022-11-27T13:59:16.834Z,16.45
2022-11-27T14:00:48.618Z,16.55
2022-11-27T14:02:20.364Z,14.82
2022-11-27T14:03:52.070Z,15.43
2022-11-27T14:05:35.023Z,16.67
2022-11-27T14:07:08.234Z,16.17
2022-11-27T14:08:39.914Z,17.02
2022-11-27T14:10:13.810Z,15.70
2022-11-27T14:11:46.281Z,20.75
2022-11-27T14:13:17.851Z,16.83
2022-11-27T14:15:01.825Z,17.15
2022-11-27T14:16:34.329Z,16.33
2022-11-27T14:18:08.550Z,16.42
2022-11-27T14:19:41.565Z,17.02
2022-11-27T14:21:24.146Z,18.25
2022-11-27T14:23:13.178Z,16.30
2022-11-27T14:24:46.584Z,18.42
2022-11-27T14:26:20.663Z,19.83
2022-11-27T14:28:00.219Z,24.73
2022-11-27T14:29:31.879Z,18.63
2022-11-27T14:31:05.143Z,18.85
2022-11-27T14:32:36.832Z,22.92
2022-11-27T14:34:26.733Z,19.50
2022-11-27T14:35:59.082Z,21.17
2022-11-27T14:37:31.182Z,19.10
2022-11-27T14:39:03.073Z,20.75
2022-11-27T14:40:34.657Z,19.17
2022-11-27T14:42:08.009Z,19.73
2022-11-27T14:43:39.592Z,19.42
2022-11-27T14:45:13.528Z,20.95
2022-11-27T14:46:46.574Z,18.48
2022-11-27T14:48:20.313Z,17.23
2022-11-27T14:49:56.045Z,18.15
2022-11-27T14:51:28.984Z,15.43
2022-11-27T14:53:00.581Z,17.92
2022-11-27T14:54:33.468Z,17.38
2022-11-27T14:56:05.628Z,17.13
2022-11-27T14:57:37.284Z,16.95
2022-11-27T14:59:11.266Z,17.02
2022-11-27T15:00:52.602Z,19.95
2022-11-27T15:02:29.135Z,17.52
2022-11-27T15:04:03.648Z,16.33
2022-11-27T15:05:35.761Z,17.48
2022-11-27T15:07:13.213Z,17.30
2022-11-27T15:08:57.916Z,17.25
2022-11-27T15:10:38.813Z,17.33
2022-11-27T15:12:15.277Z,17.25
2022-11-27T15:13:51.581Z,18.00
2022-11-27T15:15:24.102Z,18.00
2022-11-27T15:16:55.941Z,17.65
2022-11-27T15:18:28.973Z,18.13
2022-11-27T15:20:00.728Z,17.25
2022-11-27T15:21:33.941Z,16.75
2022-11-27T15:23:11.598Z,18.02
2022-11-27T15:24:43.197Z,18.00
2022-11-27T15:26:19.976Z,19.13
2022-11-27T15:27:54.235Z,18.92
2022-11-27T15:29:32.375Z,19.58
2022-11-27T15:31:20.347Z,16.60
2022-11-27T15:32:52.824Z,21.05
2022-11-27T15:34:25.874Z,16.95
2022-11-27T15:36:16.468Z,21.38
2022-11-27T15:37:48.182Z,17.83
2022-11-27T15:39:21.524Z,19.77
2022-11-27T15:40:57.809Z,21.15
2022-11-27T15:42:30.258Z,21.08
2022-11-27T15:44:03.187Z,21.50
2022-11-27T15:45:34.912Z,19.83
2022-11-27T15:47:06.623Z,18.25
2022-11-27T15:48:38.236Z,17.88
2022-11-27T15:50:13.841Z,22.10
2022-11-27T15:51:45.596Z,18.42
2022-11-27T15:53:17.536Z,18.92
2022-11-27T15:54:49.891Z,17.10
2022-11-27T15:56:21.572Z,18.23
2022-11-27T15:57:53.274Z,21.13
2022-11-27T15:59:24.932Z,20.38
2022-11-27T16:00:56.763Z,19.15
2022-11-27T16:02:30.387Z,18.52
2022-11-27T16:04:02.189Z,17.58
2022-11-27T16:05:35.186Z,18.38
2022-11-27T16:07:08.150Z,21.05
2022-11-27T16:08:39.796Z,20.52
2022-11-27T16:10:11.708Z,20.38
2022-11-27T16:11:43.366Z,19.85
2022-11-27T16:13:15.013Z,37.42
2022-11-27T16:14:46.762Z,38.35
2022-11-27T16:16:18.537Z,32.42
2022-11-27T16:17:50.261Z,35.38
2022-11-27T16:19:21.937Z,23.13
2022-11-27T16:20:54.953Z,25.30
2022-11-27T16:22:26.604Z,19.90
2022-11-27T16:23:58.947Z,20.90
2022-11-27T16:25:30.630Z,23.48
2022-11-27T16:27:02.279Z,23.73
2022-11-27T16:28:34.021Z,20.30
2022-11-27T16:30:07.070Z,19.08
2022-11-27T16:31:40.131Z,18.65
2022-11-27T16:33:11.995Z,18.13
2022-11-27T16:34:43.796Z,20.48
2022-11-27T16:36:20.553Z,18.63
2022-11-27T16:37:52.215Z,20.65
2022-11-27T16:39:24.238Z,20.13
2022-11-27T16:40:59.604Z,17.55
2022-11-27T16:42:31.288Z,18.20
2022-11-27T16:44:03.036Z,17.00
2022-11-27T16:45:35.287Z,17.42
2022-11-27T16:47:06.922Z,17.00
2022-11-27T16:48:39.282Z,16.60
2022-11-27T16:50:11.138Z,17.13
2022-11-27T16:51:44.362Z,17.83
2022-11-27T16:53:15.989Z,16.83
2022-11-27T16:54:47.742Z,22.33
2022-11-27T16:56:20.094Z,23.08
2022-11-27T16:57:51.750Z,23.05
2022-11-27T16:59:23.404Z,20.23
2022-11-27T17:00:55.125Z,18.35
2022-11-27T17:02:28.848Z,20.77
2022-11-27T17:04:01.045Z,21.45
2022-11-27T17:05:33.138Z,23.10
2022-11-27T17:07:06.200Z,20.15
2022-11-27T17:08:38.072Z,21.25
2022-11-27T17:10:10.193Z,25.20
2022-11-27T17:11:42.596Z,30.38
2022-11-27T17:13:14.249Z,23.88
2022-11-27T17:14:47.089Z,24.60
2022-11-27T17:16:18.835Z,19.73
2022-11-27T17:17:51.936Z,23.98
2022-11-27T17:19:26.357Z,21.65
2022-11-27T17:21:02.399Z,23.30
2022-11-27T17:22:35.414Z,19.73
2022-11-27T17:24:14.514Z,24.90
2022-11-27T17:25:46.792Z,25.90
2022-11-27T17:27:18.949Z,24.80
2022-11-27T17:28:50.722Z,23.13
2022-11-27T17:30:22.299Z,20.70
2022-11-27T17:31:53.960Z,18.35
2022-11-27T17:33:26.708Z,21.95
2022-11-27T17:34:58.426Z,20.73
2022-11-27T17:36:35.141Z,20.63
2022-11-27T17:38:08.364Z,20.48
2022-11-27T17:39:41.116Z,21.30
2022-11-27T17:41:13.465Z,19.85
2022-11-27T17:42:45.063Z,20.88
2022-11-27T17:44:16.677Z,20.55
2022-11-27T17:45:48.522Z,23.67
2022-11-27T17:47:20.193Z,19.35
2022-11-27T17:48:51.969Z,21.08
2022-11-27T17:50:23.590Z,19.17
2022-11-27T17:51:55.310Z,20.35
2022-11-27T17:53:28.326Z,16.88
2022-11-27T17:54:59.956Z,18.63
2022-11-27T17:56:32.249Z,17.02
2022-11-27T17:58:04.923Z,18.75
2022-11-27T17:59:36.544Z,29.88
2022-11-27T18:01:13.169Z,34.20
2022-11-27T18:02:44.964Z,29.42
2022-11-27T18:04:16.616Z,35.25
2022-11-27T18:05:48.272Z,36.50
2022-11-27T18:07:20.203Z,30.90
2022-11-27T18:08:55.669Z,30.35
2022-11-27T18:10:27.319Z,26.85
2022-11-27T18:11:58.979Z,27.83
2022-11-27T18:13:32.601Z,25.10
2022-11-27T18:15:04.921Z,28.25
2022-11-27T18:16:37.437Z,27.05
2022-11-27T18:18:09.092Z,26.25
2022-11-27T18:19:41.168Z,23.52
2022-11-27T18:21:18.211Z,24.85
2022-11-27T18:22:50.486Z,22.98
2022-11-27T18:24:24.624Z,23.48
2022-11-27T18:25:56.689Z,22.90
2022-11-27T18:27:28.326Z,25.10
2022-11-27T18:29:00.227Z,27.10
2022-11-27T18:30:31.917Z,27.13
2022-11-27T18:32:03.971Z,24.85
2022-11-27T18:33:35.734Z,21.48
2022-11-27T18:35:08.122Z,22.55
2022-11-27T18:36:39.870Z,20.67
2022-11-27T18:38:11.508Z,20.85
2022-11-27T18:39:45.381Z,23.92
2022-11-27T18:41:18.550Z,20.77
2022-11-27T18:42:50.205Z,21.50
2022-11-27T18:44:21.841Z,21.25
2022-11-27T18:45:53.697Z,18.38
2022-11-27T18:47:25.488Z,20.08
2022-11-27T18:48:57.169Z,19.52
2022-11-27T18:50:29.934Z,21.23
2022-11-27T18:52:01.719Z,21.27
2022-11-27T18:53:33.409Z,22.63
2022-11-27T18:55:07.040Z,20.55
2022-11-27T18:56:38.670Z,20.90
2022-11-27T18:58:12.796Z,21.65
2022-11-27T18:59:44.860Z,22.42
2022-11-27T19:01:17.728Z,19.77
2022-11-27T19:02:49.531Z,21.67
2022-11-27T19:04:21.282Z,20.10
2022-11-27T19:05:52.925Z,22.88
2022-11-27T19:07:26.447Z,22.58
2022-11-27T19:08:58.325Z,22.27
2022-11-27T19:10:31.313Z,19.70
2022-11-27T19:12:03.274Z,23.98
2022-11-27T19:13:35.155Z,19.00
2022-11-27T19:15:07.842Z,23.60
2022-11-27T19:16:43.856Z,20.17
2022-11-27T19:18:15.714Z,20.25
2022-11-27T19:20:04.403Z,19.23
2022-11-27T19:21:36.461Z,21.85
2022-11-27T19:23:08.107Z,22.55
2022-11-27T19:24:39.813Z,24.50
2022-11-27T19:26:14.006Z,21.08
2022-11-27T19:27:45.697Z,21.77
2022-11-27T19:29:17.307Z,20.80
2022-11-27T19:30:49.018Z,21.25
2022-11-27T19:32:20.680Z,19.65
2022-11-27T19:33:52.548Z,22.65
2022-11-27T19:35:26.524Z,21.80
2022-11-27T19:36:58.443Z,26.33
2022-11-27T19:38:30.263Z,22.05
2022-11-27T19:40:02.061Z,21.35
2022-11-27T19:41:35.131Z,24.00
2022-11-27T19:43:06.785Z,22.48
2022-11-27T19:44:38.740Z,22.50
2022-11-27T19:46:16.571Z,22.00
2022-11-27T19:47:48.407Z,22.08
2022-11-27T19:49:21.329Z,19.30
2022-11-27T19:50:53.012Z,20.38
2022-11-27T19:52:24.592Z,20.40
2022-11-27T19:53:56.275Z,19.92
2022-11-27T19:55:27.916Z,20.88
2022-11-27T19:57:00.981Z,19.52
2022-11-27T19:58:32.598Z,16.35
2022-11-27T20:00:05.580Z,18.13
2022-11-27T20:01:39.138Z,18.10
2022-11-27T20:03:10.799Z,18.95
2022-11-27T20:04:42.594Z,20.88
2022-11-27T20:06:15.017Z,17.55
2022-11-27T20:07:46.848Z,19.08
2022-11-27T20:09:18.491Z,19.73
2022-11-27T20:10:50.143Z,18.90
2022-11-27T20:12:23.100Z,19.88
2022-11-27T20:13:56.509Z,18.08
2022-11-27T20:15:28.205Z,21.48
2022-11-27T20:16:59.858Z,18.48